Time;durP1;ratioP1;P1;durP2;ratioP2;P2;SDS_P1;SDS_P2;PMS_P1;PMS_P2;Temp;Humidity;BMP_temperature;BMP_pressure;BME280_temperature;BME280_humidity;BME280_pressure;Samples;Min_cycle;Max_cycle;Signal;HPM_P1;HPM_P2
2023/05/11 00:01:55;;;;;;;10.60;5.70;;;;;19.40;101262.00;;;;5047887;28;20574;-79
2023/05/11 00:04:22;;;;;;;9.32;6.45;;;;;19.40;101253.00;;;;5048755;28;20235;-79
2023/05/11 00:06:49;;;;;;;8.77;5.57;;;;;19.40;101259.00;;;;5047256;28;20501;-79
2023/05/11 00:09:17;;;;;;;9.43;5.78;;;;;19.40;101259.00;;;;5047943;28;20191;-80
2023/05/11 00:11:45;;;;;;;10.52;5.75;;;;;19.40;101253.00;;;;5053023;28;20210;-79
2023/05/11 00:14:12;;;;;;;10.18;5.95;;;;;19.40;101250.00;;;;5061544;28;20215;-79
2023/05/11 00:16:40;;;;;;;9.38;6.25;;;;;19.40;101249.00;;;;5048000;28;20210;-79
2023/05/11 00:19:07;;;;;;;10.05;5.70;;;;;19.40;101259.00;;;;5048403;28;20554;-79
2023/05/11 00:21:34;;;;;;;11.75;6.72;;;;;19.40;101254.00;;;;5048621;28;20695;-79
2023/05/11 00:24:01;;;;;;;9.82;6.07;;;;;19.40;101253.00;;;;5047658;28;20206;-80
2023/05/11 00:26:29;;;;;;;9.45;5.43;;;;;19.40;101255.00;;;;5068894;28;20544;-79
2023/05/11 00:28:57;;;;;;;9.77;6.18;;;;;19.30;101248.00;;;;5058515;28;20205;-79
2023/05/11 00:31:25;;;;;;;11.68;6.38;;;;;19.30;101246.00;;;;5054576;28;20208;-80
2023/05/11 00:33:53;;;;;;;9.07;6.00;;;;;19.30;101246.00;;;;5052937;28;20654;-79
2023/05/11 00:36:21;;;;;;;6.72;4.68;;;;;19.30;101252.00;;;;5066270;28;20219;-79
2023/05/11 00:38:48;;;;;;;8.55;5.68;;;;;19.30;101248.00;;;;5061629;28;20211;-79
2023/05/11 00:41:16;;;;;;;10.02;6.25;;;;;19.30;101245.00;;;;5049024;28;20290;-79
2023/05/11 00:43:43;;;;;;;8.95;6.68;;;;;19.30;101248.00;;;;5068652;28;20190;-79
2023/05/11 00:46:12;;;;;;;8.50;5.82;;;;;19.30;101241.00;;;;5070422;28;20223;-79
2023/05/11 00:48:39;;;;;;;11.77;5.03;;;;;19.30;101236.00;;;;5062544;28;20199;-80
2023/05/11 00:51:08;;;;;;;10.70;6.18;;;;;19.30;101237.00;;;;5051379;28;20581;-79
2023/05/11 00:53:38;;;;;;;10.75;6.43;;;;;19.20;101239.00;;;;5064080;28;20198;-79
2023/05/11 00:56:06;;;;;;;11.70;5.72;;;;;19.20;101247.00;;;;5070830;28;20683;-79
2023/05/11 00:58:34;;;;;;;11.50;6.03;;;;;19.20;101244.00;;;;5072181;28;20206;-79
2023/05/11 01:01:02;;;;;;;9.82;6.00;;;;;19.20;101242.00;;;;5063510;28;20222;-79
2023/05/11 01:03:31;;;;;;;7.75;5.63;;;;;19.20;101248.00;;;;5067813;28;20206;-80
2023/05/11 01:06:06;;;;;;;10.35;6.55;;;;;19.10;101247.00;;;;5058730;28;20236;-79
2023/05/11 01:08:41;;;;;;;7.85;5.50;;;;;19.10;101252.00;;;;5052057;28;20202;-79
2023/05/11 01:11:12;;;;;;;8.05;5.50;;;;;19.10;101253.00;;;;5051142;28;20622;-80
2023/05/11 01:13:46;;;;;;;10.88;5.50;;;;;19.10;101263.00;;;;5058246;28;20191;-79
2023/05/11 01:16:18;;;;;;;13.20;6.28;;;;;19.10;101259.00;;;;5070074;28;20205;-78
2023/05/11 01:18:52;;;;;;;7.88;4.88;;;;;19.00;101254.00;;;;5071500;28;20195;-79
2023/05/11 01:21:20;;;;;;;9.15;6.35;;;;;19.10;101258.00;;;;5068787;28;20264;-79
2023/05/11 01:24:22;;;;;;;8.25;6.43;;;;;18.90;101250.00;;;;5051258;28;20191;-79
2023/05/11 01:27:17;;;;;;;10.77;6.10;;;;;18.90;101255.00;;;;5048518;28;20203;-79
2023/05/11 01:30:00;;;;;;;10.02;5.72;;;;;18.90;101253.00;;;;5054604;28;20207;-79
2023/05/11 01:32:32;;;;;;;9.20;5.63;;;;;18.90;101256.00;;;;5055700;28;20199;-80
2023/05/11 01:35:09;;;;;;;11.57;6.00;;;;;18.90;101253.00;;;;5061627;28;20223;-79
2023/05/11 01:37:38;;;;;;;10.98;7.13;;;;;18.90;101260.00;;;;5060595;28;20688;-79
2023/05/11 01:40:10;;;;;;;12.55;7.47;;;;;18.90;101256.00;;;;5056756;28;20559;-79
2023/05/11 01:42:43;;;;;;;15.43;8.18;;;;;18.90;101262.00;;;;5059772;28;20665;-79
2023/05/11 01:45:15;;;;;;;12.60;7.47;;;;;18.80;101264.00;;;;5052207;28;20570;-79
2023/05/11 01:47:47;;;;;;;11.88;7.20;;;;;18.90;101262.00;;;;5052375;28;20211;-79
2023/05/11 01:50:16;;;;;;;10.07;6.88;;;;;18.90;101268.00;;;;5050301;28;20230;-80
2023/05/11 01:52:45;;;;;;;10.70;7.30;;;;;18.80;101264.00;;;;5050991;28;20682;-79
2023/05/11 01:55:14;;;;;;;11.18;6.78;;;;;18.80;101264.00;;;;5049575;28;20207;-79
2023/05/11 01:57:41;;;;;;;11.63;6.80;;;;;18.80;101272.00;;;;5055403;28;20199;-78
2023/05/11 02:00:09;;;;;;;12.77;7.35;;;;;18.80;101272.00;;;;5050639;28;20192;-78
2023/05/11 02:02:38;;;;;;;12.40;6.80;;;;;18.80;101272.00;;;;5049476;28;20230;-78
2023/05/11 02:05:08;;;;;;;12.50;7.15;;;;;18.70;101273.00;;;;5049974;28;20219;-78
2023/05/11 02:07:38;;;;;;;10.38;6.50;;;;;18.80;101269.00;;;;5049995;28;20204;-78
2023/05/11 02:10:07;;;;;;;12.30;7.35;;;;;18.80;101268.00;;;;5049299;28;20215;-78
2023/05/11 02:12:35;;;;;;;10.20;6.72;;;;;18.70;101269.00;;;;5050524;28;20203;-79
2023/05/11 02:15:04;;;;;;;11.00;6.95;;;;;18.70;101273.00;;;;5049752;28;20294;-79
2023/05/11 02:17:33;;;;;;;10.90;6.80;;;;;18.70;101277.00;;;;5049710;28;20261;-79
2023/05/11 02:20:03;;;;;;;10.73;6.95;;;;;18.70;101273.00;;;;5050113;28;20204;-79
2023/05/11 02:22:33;;;;;;;8.85;5.72;;;;;18.70;101276.00;;;;5050280;28;20200;-79
2023/05/11 02:25:00;;;;;;;10.65;6.97;;;;;18.70;101268.00;;;;5049030;28;20219;-79
2023/05/11 02:27:28;;;;;;;9.90;6.45;;;;;18.70;101282.00;;;;5050623;28;20204;-79
2023/05/11 02:29:55;;;;;;;12.20;6.28;;;;;18.70;101280.00;;;;5065027;28;20680;-79
2023/05/11 02:32:24;;;;;;;8.95;5.68;;;;;18.70;101277.00;;;;5049489;28;20208;-80
2023/05/11 02:34:58;;;;;;;8.95;5.97;;;;;18.60;101284.00;;;;5052118;28;20636;-79
2023/05/11 02:37:27;;;;;;;7.85;5.55;;;;;18.70;101281.00;;;;5050009;28;20238;-79
2023/05/11 02:40:02;;;;;;;8.77;5.68;;;;;18.60;101276.00;;;;5060412;28;20199;-79
2023/05/11 02:42:32;;;;;;;9.00;6.10;;;;;18.60;101270.00;;;;5065318;28;20560;-79
2023/05/11 02:45:03;;;;;;;10.90;6.05;;;;;18.60;101269.00;;;;5068317;28;20683;-79
2023/05/11 02:47:33;;;;;;;12.65;6.35;;;;;18.60;101271.00;;;;5067102;28;20191;-79
2023/05/11 02:50:03;;;;;;;8.75;5.65;;;;;18.60;101271.00;;;;5052339;28;20199;-79
2023/05/11 02:52:32;;;;;;;8.50;5.72;;;;;18.60;101269.00;;;;5056768;28;20191;-79
2023/05/11 02:55:03;;;;;;;9.95;5.97;;;;;18.60;101273.00;;;;5053462;28;20622;-79
2023/05/11 02:57:31;;;;;;;9.93;5.72;;;;;18.60;101272.00;;;;5048455;28;20219;-79
2023/05/11 02:59:58;;;;;;;9.07;6.03;;;;;18.50;101271.00;;;;5049077;28;20196;-79
2023/05/11 03:02:26;;;;;;;8.68;5.45;;;;;18.50;101266.00;;;;5050809;28;20214;-79
2023/05/11 03:04:53;;;;;;;9.15;5.35;;;;;18.50;101267.00;;;;5054740;28;20382;-79
2023/05/11 03:07:20;;;;;;;9.52;5.65;;;;;18.50;101269.00;;;;5048957;28;20219;-79
2023/05/11 03:09:48;;;;;;;8.50;5.18;;;;;18.50;101271.00;;;;5051777;28;20203;-79
2023/05/11 03:12:16;;;;;;;9.80;5.95;;;;;18.50;101258.00;;;;5069003;28;20199;-79
2023/05/11 03:14:45;;;;;;;9.07;5.95;;;;;18.50;101264.00;;;;5067061;28;20203;-79
2023/05/11 03:17:14;;;;;;;10.13;6.40;;;;;18.40;101262.00;;;;5067959;28;20195;-79
2023/05/11 03:19:42;;;;;;;9.73;5.65;;;;;18.40;101260.00;;;;5068082;28;20223;-79
2023/05/11 03:22:11;;;;;;;10.65;6.18;;;;;18.40;101256.00;;;;5067962;28;20203;-79
2023/05/11 03:24:39;;;;;;;8.63;5.68;;;;;18.40;101258.00;;;;5059023;28;20203;-79
2023/05/11 03:27:08;;;;;;;11.73;6.93;;;;;18.40;101249.00;;;;5048366;28;20231;-79
2023/05/11 03:29:38;;;;;;;8.38;5.25;;;;;18.40;101257.00;;;;5057289;28;20203;-79
2023/05/11 03:32:06;;;;;;;10.63;6.38;;;;;18.40;101256.00;;;;5068534;28;20198;-79
2023/05/11 03:34:33;;;;;;;9.10;6.05;;;;;18.40;101251.00;;;;5058657;28;20223;-79
2023/05/11 03:37:01;;;;;;;10.18;6.43;;;;;18.40;101246.00;;;;5048310;28;20223;-79
2023/05/11 03:39:32;;;;;;;13.63;6.38;;;;;18.40;101246.00;;;;5059888;28;20202;-79
2023/05/11 03:42:00;;;;;;;10.60;6.70;;;;;18.40;101252.00;;;;5049021;28;20191;-79
2023/05/11 03:44:31;;;;;;;12.18;6.88;;;;;18.40;101241.00;;;;5048297;28;20246;-79
2023/05/11 03:47:01;;;;;;;12.38;6.28;;;;;18.30;101247.00;;;;5047603;28;20732;-79
2023/05/11 03:49:29;;;;;;;9.88;6.22;;;;;18.30;101245.00;;;;5049419;28;20203;-79
2023/05/11 03:51:57;;;;;;;9.65;6.00;;;;;18.30;101244.00;;;;5065425;28;20213;-79
2023/05/11 03:54:25;;;;;;;9.43;5.85;;;;;18.30;101252.00;;;;5062125;28;20202;-79
2023/05/11 03:56:52;;;;;;;7.97;5.45;;;;;18.20;101255.00;;;;5068112;28;20637;-79
2023/05/11 03:59:20;;;;;;;10.88;5.82;;;;;18.20;101256.00;;;;5067990;28;20202;-79
2023/05/11 04:01:51;;;;;;;9.80;6.30;;;;;18.20;101256.00;;;;5067516;28;20668;-79
2023/05/11 04:04:20;;;;;;;9.07;5.90;;;;;18.20;101264.00;;;;5065867;28;20209;-79
2023/05/11 04:06:47;;;;;;;11.15;5.35;;;;;18.20;101262.00;;;;5058083;28;20694;-80
2023/05/11 04:09:15;;;;;;;10.60;6.68;;;;;18.20;101264.00;;;;5048517;28;20681;-80
2023/05/11 04:11:42;;;;;;;10.30;6.35;;;;;18.20;101267.00;;;;5065949;28;20198;-79
2023/05/11 04:14:09;;;;;;;13.75;7.68;;;;;18.20;101257.00;;;;5049109;28;20202;-80
2023/05/11 04:16:37;;;;;;;9.88;6.30;;;;;18.20;101253.00;;;;5067291;28;20210;-79
2023/05/11 04:19:05;;;;;;;9.30;6.43;;;;;18.20;101259.00;;;;5069744;28;20198;-79
2023/05/11 04:21:34;;;;;;;11.38;6.72;;;;;18.20;101261.00;;;;5072813;28;20669;-79
2023/05/11 04:24:02;;;;;;;9.55;5.88;;;;;18.20;101260.00;;;;5053846;28;20715;-79
2023/05/11 04:26:29;;;;;;;9.27;5.63;;;;;18.20;101269.00;;;;5071389;28;20238;-79
2023/05/11 04:28:56;;;;;;;18.23;6.72;;;;;18.20;101271.00;;;;5069603;28;20202;-79
2023/05/11 04:31:23;;;;;;;10.52;5.93;;;;;18.30;101272.00;;;;5072306;28;20564;-79
2023/05/11 04:33:51;;;;;;;10.88;6.18;;;;;18.30;101270.00;;;;5067141;28;22479;-80
2023/05/11 04:36:19;;;;;;;11.80;6.25;;;;;18.30;101270.00;;;;5060354;28;20238;-79
2023/05/11 04:38:47;;;;;;;11.23;6.28;;;;;18.20;101272.00;;;;5052760;28;20211;-80
2023/05/11 04:41:15;;;;;;;18.23;8.23;;;;;18.30;101271.00;;;;5052196;28;20207;-79
2023/05/11 04:43:42;;;;;;;18.92;9.35;;;;;18.30;101280.00;;;;5068872;28;20222;-79
2023/05/11 04:46:09;;;;;;;24.20;10.07;;;;;18.30;101279.00;;;;5069374;28;20233;-79
2023/05/11 04:48:37;;;;;;;28.23;8.38;;;;;18.30;101275.00;;;;5061436;28;20198;-80
2023/05/11 04:51:05;;;;;;;24.60;9.05;;;;;18.30;101283.00;;;;5058232;28;21093;-79
2023/05/11 04:53:32;;;;;;;14.48;6.95;;;;;18.30;101293.00;;;;5052776;28;20203;-79
2023/05/11 04:56:01;;;;;;;15.88;7.80;;;;;18.30;101282.00;;;;5070274;28;20191;-79
2023/05/11 04:58:28;;;;;;;15.95;8.38;;;;;18.40;101286.00;;;;5064740;28;20191;-79
2023/05/11 05:00:55;;;;;;;14.57;8.38;;;;;18.40;101289.00;;;;5063312;28;20202;-79
2023/05/11 05:03:22;;;;;;;13.82;7.97;;;;;18.40;101286.00;;;;5059323;28;20202;-79
2023/05/11 05:05:50;;;;;;;21.83;7.68;;;;;18.40;101291.00;;;;5070593;28;20259;-79
2023/05/11 05:08:17;;;;;;;21.48;7.88;;;;;18.40;101298.00;;;;5071401;28;20655;-80
2023/05/11 05:10:45;;;;;;;13.52;7.80;;;;;18.40;101297.00;;;;5052468;28;20216;-80
2023/05/11 05:13:15;;;;;;;14.23;7.68;;;;;18.50;101296.00;;;;5050897;28;20207;-79
2023/05/11 05:15:42;;;;;;;16.13;7.25;;;;;18.50;101292.00;;;;5068924;28;20202;-79
2023/05/11 05:18:10;;;;;;;19.80;6.93;;;;;18.50;101299.00;;;;5070563;28;20203;-79
2023/05/11 05:20:38;;;;;;;17.17;6.78;;;;;18.50;101292.00;;;;5056989;28;20214;-79
2023/05/11 05:23:05;;;;;;;12.07;6.95;;;;;18.50;101292.00;;;;5050646;28;20192;-79
2023/05/11 05:25:33;;;;;;;10.52;6.78;;;;;18.50;101302.00;;;;5051961;28;20215;-79
2023/05/11 05:28:00;;;;;;;9.10;6.25;;;;;18.60;101291.00;;;;5051408;28;20223;-79
2023/05/11 05:30:29;;;;;;;15.52;6.82;;;;;18.60;101302.00;;;;5065352;28;20195;-79
2023/05/11 05:32:56;;;;;;;9.68;6.93;;;;;18.60;101299.00;;;;5050924;28;20194;-79
2023/05/11 05:35:23;;;;;;;11.05;6.95;;;;;18.70;101306.00;;;;5052476;28;20224;-80
2023/05/11 05:37:50;;;;;;;9.98;6.80;;;;;18.70;101310.00;;;;5061124;28;20207;-80
2023/05/11 05:40:18;;;;;;;9.35;6.43;;;;;18.70;101306.00;;;;5051084;28;20594;-79
2023/05/11 05:42:45;;;;;;;8.25;5.72;;;;;18.70;101312.00;;;;5051249;28;20207;-79
2023/05/11 05:45:13;;;;;;;10.30;6.38;;;;;18.80;101312.00;;;;5052597;28;20199;-79
2023/05/11 05:47:41;;;;;;;10.07;6.22;;;;;18.80;101311.00;;;;5054034;28;20235;-78
2023/05/11 05:50:10;;;;;;;9.27;6.30;;;;;18.90;101313.00;;;;5052851;28;20218;-78
2023/05/11 05:52:37;;;;;;;9.07;6.18;;;;;18.90;101316.00;;;;5061010;28;20205;-78
2023/05/11 05:55:05;;;;;;;13.13;7.30;;;;;19.00;101322.00;;;;5060585;28;20282;-79
2023/05/11 05:57:33;;;;;;;11.07;7.15;;;;;19.00;101318.00;;;;5050087;28;20206;-78
2023/05/11 06:00:00;;;;;;;10.52;6.65;;;;;19.00;101332.00;;;;5052002;28;20204;-78
2023/05/11 06:02:27;;;;;;;11.68;6.57;;;;;19.10;101324.00;;;;5050831;28;20200;-78
2023/05/11 06:04:56;;;;;;;12.15;6.47;;;;;19.10;101335.00;;;;5050564;28;20207;-78
2023/05/11 06:07:23;;;;;;;10.30;7.20;;;;;19.20;101330.00;;;;5057517;28;20239;-78
2023/05/11 06:09:50;;;;;;;9.93;6.43;;;;;19.20;101334.00;;;;5049788;28;20401;-78
2023/05/11 06:12:19;;;;;;;10.52;7.05;;;;;19.20;101340.00;;;;5064872;28;20643;-78
2023/05/11 06:14:46;;;;;;;11.32;6.97;;;;;19.30;101334.00;;;;5070277;28;20206;-78
2023/05/11 06:17:14;;;;;;;12.73;8.15;;;;;19.40;101338.00;;;;5065540;28;20190;-78
2023/05/11 06:19:41;;;;;;;12.38;7.65;;;;;19.40;101338.00;;;;5050791;28;20290;-78
2023/05/11 06:22:10;;;;;;;11.48;7.30;;;;;19.40;101341.00;;;;5048611;28;20443;-77
2023/05/11 06:24:37;;;;;;;11.75;7.18;;;;;19.50;101341.00;;;;5056938;28;20577;-78
2023/05/11 06:27:04;;;;;;;12.63;7.35;;;;;19.60;101338.00;;;;5052342;28;20227;-78
2023/05/11 06:29:31;;;;;;;13.30;7.93;;;;;19.60;101344.00;;;;5049766;28;20670;-78
2023/05/11 06:31:59;;;;;;;12.38;7.78;;;;;19.70;101345.00;;;;5048705;28;20764;-78
2023/05/11 06:34:26;;;;;;;9.65;6.57;;;;;19.80;101352.00;;;;5049610;28;20219;-77
2023/05/11 06:36:53;;;;;;;9.50;6.82;;;;;19.90;101348.00;;;;5061707;28;20731;-78
2023/05/11 06:39:22;;;;;;;10.85;6.95;;;;;19.90;101347.00;;;;5058198;28;20200;-78
2023/05/11 06:41:52;;;;;;;9.63;6.72;;;;;20.00;101361.00;;;;5046944;28;20208;-79
2023/05/11 06:44:19;;;;;;;10.20;6.55;;;;;20.10;101359.00;;;;5061178;28;20245;-78
2023/05/11 06:46:46;;;;;;;10.15;6.60;;;;;20.20;101362.00;;;;5051551;28;20250;-78
2023/05/11 06:49:14;;;;;;;9.70;6.32;;;;;20.30;101358.00;;;;5048726;28;20302;-78
2023/05/11 06:51:42;;;;;;;9.65;6.15;;;;;20.40;101358.00;;;;5056602;28;20196;-78
2023/05/11 06:54:09;;;;;;;11.27;6.38;;;;;20.50;101364.00;;;;5048339;28;20207;-78
2023/05/11 06:56:38;;;;;;;9.15;5.97;;;;;20.60;101365.00;;;;5068122;28;20214;-78
2023/05/11 06:59:05;;;;;;;8.43;5.38;;;;;20.70;101363.00;;;;5056226;28;20203;-77
2023/05/11 07:01:32;;;;;;;12.88;7.18;;;;;20.80;101365.00;;;;5054254;28;22013;-78
2023/05/11 07:04:00;;;;;;;8.98;6.32;;;;;20.80;101369.00;;;;5067023;28;20199;-77
2023/05/11 07:06:28;;;;;;;11.40;6.50;;;;;20.90;101365.00;;;;5065449;28;20239;-78
2023/05/11 07:08:55;;;;;;;9.07;5.63;;;;;21.00;101369.00;;;;5055811;28;20191;-78
2023/05/11 07:11:24;;;;;;;10.02;7.15;;;;;21.00;101367.00;;;;5057961;28;20194;-77
2023/05/11 07:13:52;;;;;;;12.93;7.07;;;;;21.10;101363.00;;;;5067188;28;20249;-77
2023/05/11 07:16:20;;;;;;;12.52;7.80;;;;;21.20;101368.00;;;;5060408;28;20200;-79
2023/05/11 07:18:47;;;;;;;12.23;8.25;;;;;21.20;101370.00;;;;5065002;28;20209;-78
2023/05/11 07:21:14;;;;;;;11.82;7.95;;;;;21.30;101376.00;;;;5053721;28;20580;-79
2023/05/11 07:23:43;;;;;;;11.60;8.13;;;;;21.30;101375.00;;;;5059222;28;20208;-80
2023/05/11 07:26:10;;;;;;;10.77;6.80;;;;;21.40;101368.00;;;;5066511;28;20205;-80
2023/05/11 07:28:38;;;;;;;9.75;6.90;;;;;21.40;101372.00;;;;5052415;28;20309;-80
2023/05/11 07:31:07;;;;;;;10.65;7.20;;;;;21.50;101371.00;;;;5052258;28;20580;-80
2023/05/11 07:33:36;;;;;;;10.48;7.55;;;;;21.50;101371.00;;;;5065795;28;20198;-80
2023/05/11 07:36:04;;;;;;;8.52;6.43;;;;;21.60;101369.00;;;;5059720;28;20228;-80
2023/05/11 07:38:31;;;;;;;11.55;7.93;;;;;21.60;101368.00;;;;5067435;28;20194;-80
2023/05/11 07:40:58;;;;;;;9.18;6.82;;;;;21.60;101376.00;;;;5060921;28;20199;-80
2023/05/11 07:43:26;;;;;;;9.35;7.13;;;;;21.60;101364.00;;;;5059663;28;20210;-80
2023/05/11 07:45:53;;;;;;;10.52;7.35;;;;;21.70;101377.00;;;;5058834;28;20195;-80
2023/05/11 07:48:22;;;;;;;10.40;7.30;;;;;21.70;101366.00;;;;5051972;28;20222;-80
2023/05/11 07:50:49;;;;;;;11.60;8.30;;;;;21.80;101371.00;;;;5055626;28;20695;-79
2023/05/11 07:53:16;;;;;;;12.65;8.07;;;;;21.90;101367.00;;;;5057698;28;20187;-80
2023/05/11 07:55:44;;;;;;;10.68;7.65;;;;;22.00;101367.00;;;;5066531;28;20203;-79
2023/05/11 07:58:11;;;;;;;11.45;8.13;;;;;22.10;101362.00;;;;5063611;28;20572;-80
2023/05/11 08:00:38;;;;;;;10.30;8.25;;;;;22.20;101366.00;;;;5049564;28;20200;-79
2023/05/11 08:03:06;;;;;;;12.23;8.40;;;;;22.30;101363.00;;;;5050109;28;20669;-79
2023/05/11 08:05:36;;;;;;;9.27;7.10;;;;;22.40;101363.00;;;;5057194;28;20195;-79
2023/05/11 08:08:04;;;;;;;9.63;7.80;;;;;22.50;101367.00;;;;5049668;28;20215;-79
2023/05/11 08:10:31;;;;;;;11.82;8.68;;;;;22.60;101368.00;;;;5065172;28;20264;-79
2023/05/11 08:12:59;;;;;;;12.85;8.73;;;;;22.70;101374.00;;;;5061288;28;20199;-79
2023/05/11 08:15:26;;;;;;;10.23;7.95;;;;;22.80;101383.00;;;;5066992;28;20199;-79
2023/05/11 08:17:54;;;;;;;9.57;7.95;;;;;22.80;101375.00;;;;5052066;28;20584;-79
2023/05/11 08:20:21;;;;;;;9.70;7.43;;;;;22.90;101382.00;;;;5064517;28;20578;-79
2023/05/11 08:22:50;;;;;;;13.52;8.10;;;;;22.90;101383.00;;;;5058885;28;20207;-79
2023/05/11 08:25:18;;;;;;;11.77;8.15;;;;;23.00;101380.00;;;;5066527;28;20292;-79
2023/05/11 08:27:45;;;;;;;12.43;7.93;;;;;23.10;101383.00;;;;5063914;28;20287;-79
2023/05/11 08:30:13;;;;;;;12.10;8.27;;;;;23.20;101383.00;;;;5054942;28;20203;-79
2023/05/11 08:32:40;;;;;;;12.10;7.95;;;;;23.20;101388.00;;;;5048814;28;20677;-79
2023/05/11 08:35:08;;;;;;;10.02;8.13;;;;;23.30;101385.00;;;;5059494;28;20711;-79
2023/05/11 08:37:36;;;;;;;10.88;8.20;;;;;23.30;101381.00;;;;5066721;28;20305;-79
2023/05/11 08:40:05;;;;;;;12.25;7.78;;;;;23.30;101378.00;;;;5055026;28;20200;-79
2023/05/11 08:42:34;;;;;;;13.98;9.25;;;;;23.40;101374.00;;;;5057473;28;20229;-79
2023/05/11 08:45:04;;;;;;;11.65;8.48;;;;;23.40;101375.00;;;;5048445;28;20257;-78
2023/05/11 08:47:31;;;;;;;10.77;8.55;;;;;23.40;101374.00;;;;5060660;28;20223;-78
2023/05/11 08:49:59;;;;;;;12.13;8.52;;;;;23.50;101377.00;;;;5059244;28;20226;-79
2023/05/11 08:52:26;;;;;;;11.82;7.82;;;;;23.50;101376.00;;;;5051099;28;20194;-78
2023/05/11 08:54:54;;;;;;;11.95;8.70;;;;;23.60;101377.00;;;;5068370;28;20720;-79
2023/05/11 08:57:23;;;;;;;12.13;8.73;;;;;23.60;101379.00;;;;5057176;28;20199;-79
2023/05/11 08:59:51;;;;;;;11.80;9.23;;;;;23.60;101374.00;;;;5059420;28;20281;-79
2023/05/11 09:02:20;;;;;;;13.38;8.65;;;;;23.60;101374.00;;;;5061117;28;20207;-79
2023/05/11 09:04:49;;;;;;;12.18;9.48;;;;;23.70;101381.00;;;;5069030;28;20199;-80
2023/05/11 09:07:17;;;;;;;13.73;8.68;;;;;23.70;101378.00;;;;5070055;28;20241;-79
2023/05/11 09:09:45;;;;;;;11.98;8.98;;;;;23.70;101375.00;;;;5070142;28;20203;-80
2023/05/11 09:12:13;;;;;;;13.40;8.75;;;;;23.70;101378.00;;;;5052124;28;20215;-80
2023/05/11 09:14:42;;;;;;;12.20;9.02;;;;;23.70;101381.00;;;;5052153;28;20576;-80
2023/05/11 09:17:09;;;;;;;11.02;8.82;;;;;23.80;101386.00;;;;5067198;28;20233;-80
2023/05/11 09:19:36;;;;;;;13.15;9.93;;;;;23.80;101379.00;;;;5062158;28;20202;-80
2023/05/11 09:22:06;;;;;;;14.13;9.38;;;;;23.80;101386.00;;;;5058085;28;20195;-80
2023/05/11 09:24:33;;;;;;;13.90;9.95;;;;;23.80;101390.00;;;;5056442;28;20200;-79
2023/05/11 09:27:08;;;;;;;11.38;8.95;;;;;23.70;101387.00;;;;5056978;28;20210;-80
2023/05/11 09:29:35;;;;;;;14.63;10.45;;;;;23.80;101383.00;;;;5067560;28;20194;-80
2023/05/11 09:32:04;;;;;;;12.38;9.63;;;;;23.80;101381.00;;;;5069790;28;20648;-80
2023/05/11 09:34:32;;;;;;;12.25;9.32;;;;;23.80;101381.00;;;;5051485;28;20246;-79
2023/05/11 09:36:59;;;;;;;12.70;9.95;;;;;23.90;101384.00;;;;5049598;28;20289;-80
2023/05/11 09:39:33;;;;;;;12.50;9.73;;;;;23.90;101385.00;;;;5054815;28;20278;-80
2023/05/11 09:42:14;;;;;;;11.38;8.35;;;;;23.90;101384.00;;;;5052851;28;20211;-79
2023/05/11 09:44:41;;;;;;;13.55;10.15;;;;;24.00;101390.00;;;;5050401;28;20209;-79
2023/05/11 09:47:15;;;;;;;15.02;10.50;;;;;24.00;101387.00;;;;5060733;28;20199;-79
2023/05/11 09:49:43;;;;;;;11.77;9.65;;;;;24.00;101383.00;;;;5054350;28;20235;-80
2023/05/11 09:52:11;;;;;;;16.42;10.05;;;;;24.00;101382.00;;;;5055228;28;20208;-78
2023/05/11 09:54:43;;;;;;;11.05;8.55;;;;;24.00;101391.00;;;;5060666;28;20653;-78
2023/05/11 09:57:24;;;;;;;14.48;9.90;;;;;23.90;101385.00;;;;5064494;28;20624;-78
2023/05/11 09:59:52;;;;;;;11.52;8.45;;;;;23.90;101388.00;;;;5052981;28;20208;-79
2023/05/11 10:02:23;;;;;;;13.25;9.68;;;;;23.90;101391.00;;;;5060444;28;20628;-80
2023/05/11 10:04:52;;;;;;;12.73;9.35;;;;;23.80;101386.00;;;;5049720;28;20743;-79
2023/05/11 10:07:30;;;;;;;11.93;9.75;;;;;23.70;101386.00;;;;5051394;28;20210;-79
2023/05/11 10:09:59;;;;;;;12.15;9.63;;;;;23.70;101388.00;;;;5050077;28;20203;-80
2023/05/11 10:12:27;;;;;;;13.43;9.30;;;;;23.70;101381.00;;;;5065594;28;20234;-80
2023/05/11 10:15:00;;;;;;;10.57;8.85;;;;;23.60;101379.00;;;;5058529;28;20206;-79
2023/05/11 10:17:30;;;;;;;12.23;9.20;;;;;23.50;101381.00;;;;5046995;28;20195;-79
2023/05/11 10:19:58;;;;;;;12.98;9.65;;;;;23.50;101379.00;;;;5064640;28;20276;-80
2023/05/11 10:22:26;;;;;;;10.65;8.68;;;;;23.50;101376.00;;;;5063716;28;20669;-80
2023/05/11 10:24:54;;;;;;;11.30;8.75;;;;;23.50;101384.00;;;;5064169;28;20191;-79
2023/05/11 10:27:23;;;;;;;13.50;9.27;;;;;23.50;101377.00;;;;5067230;28;20282;-79
2023/05/11 10:29:51;;;;;;;10.82;8.70;;;;;23.50;101385.00;;;;5057423;28;20215;-79
2023/05/11 10:32:20;;;;;;;10.98;8.48;;;;;23.50;101371.00;;;;5049378;28;20594;-79
2023/05/11 10:34:50;;;;;;;12.80;9.20;;;;;23.50;101377.00;;;;5058328;28;20231;-79
2023/05/11 10:37:19;;;;;;;12.00;8.40;;;;;23.70;101382.00;;;;5060498;28;20550;-80
2023/05/11 10:39:48;;;;;;;12.40;8.68;;;;;23.80;101373.00;;;;5058682;28;20206;-79
2023/05/11 10:42:42;;;;;;;11.30;8.23;;;;;23.90;101369.00;;;;5061377;28;20199;-79
2023/05/11 10:45:22;;;;;;;10.52;8.75;;;;;24.00;101366.00;;;;5048713;28;20199;-80
2023/05/11 10:48:11;;;;;;;15.18;9.52;;;;;24.20;101366.00;;;;5059468;28;20222;-79
2023/05/11 10:51:00;;;;;;;12.02;8.75;;;;;24.30;101366.00;;;;5048779;28;20199;-79
2023/05/11 10:53:44;;;;;;;11.75;9.25;;;;;24.40;101371.00;;;;5047345;28;20583;-79
2023/05/11 10:56:26;;;;;;;10.75;8.45;;;;;24.40;101372.00;;;;5048391;28;20203;-79
2023/05/11 10:59:15;;;;;;;10.05;8.07;;;;;24.50;101369.00;;;;5060997;28;20231;-80
2023/05/11 11:01:44;;;;;;;11.65;8.50;;;;;24.70;101370.00;;;;5066446;28;20199;-80
2023/05/11 11:04:13;;;;;;;10.93;7.97;;;;;24.70;101373.00;;;;5062789;28;20203;-80
2023/05/11 11:06:43;;;;;;;11.77;8.55;;;;;24.70;101370.00;;;;5048184;28;20207;-80
2023/05/11 11:09:13;;;;;;;11.80;8.85;;;;;24.80;101371.00;;;;5047210;28;20219;-80
2023/05/11 11:11:44;;;;;;;9.25;7.82;;;;;24.80;101379.00;;;;5057518;28;20200;-80
2023/05/11 11:14:13;;;;;;;8.90;7.85;;;;;24.80;101377.00;;;;5048015;28;20199;-80
2023/05/11 11:16:41;;;;;;;10.32;7.88;;;;;24.80;101380.00;;;;5063295;28;20199;-81
2023/05/11 11:19:38;;;;;;;10.27;7.32;;;;;24.70;101380.00;;;;5058072;28;20198;-79
2023/05/11 11:22:27;;;;;;;12.18;8.10;;;;;24.80;101390.00;;;;5056507;28;20230;-80
2023/05/11 11:24:54;;;;;;;8.35;6.07;;;;;24.70;101394.00;;;;5056330;28;20199;-79
2023/05/11 11:27:56;;;;;;;6.43;4.55;;;;;24.50;101390.00;;;;5050408;28;20211;-79
2023/05/11 11:30:24;;;;;;;5.63;4.57;;;;;24.60;101392.00;;;;5054160;28;20203;-80
2023/05/11 11:32:53;;;;;;;4.45;3.97;;;;;24.40;101392.00;;;;5046834;28;20200;-80
2023/05/11 11:35:46;;;;;;;6.05;4.47;;;;;24.20;101387.00;;;;5051593;28;20227;-80
2023/05/11 11:38:15;;;;;;;5.68;3.58;;;;;24.20;101377.00;;;;5039026;28;20245;-80
2023/05/11 11:40:44;;;;;;;6.30;4.40;;;;;24.10;101375.00;;;;5048883;28;20196;-82
2023/05/11 11:43:14;;;;;;;5.75;4.18;;;;;24.00;101374.00;;;;5058659;28;20562;-81
2023/05/11 11:45:51;;;;;;;5.65;3.92;;;;;23.80;101380.00;;;;5068528;28;20198;-80
2023/05/11 11:48:22;;;;;;;5.90;4.50;;;;;23.80;101384.00;;;;5048559;28;20223;-80
2023/05/11 11:51:01;;;;;;;5.68;4.13;;;;;23.70;101391.00;;;;5050777;28;20668;-80
2023/05/11 11:54:08;;;;;;;5.18;3.40;;;;;23.50;101392.00;;;;5049799;28;20249;-80
2023/05/11 11:56:40;;;;;;;10.90;3.92;;;;;23.40;101390.00;;;;5048598;28;20203;-80
2023/05/11 11:59:12;;;;;;;4.53;3.90;;;;;23.30;101390.00;;;;5048280;28;20666;-80
2023/05/11 12:01:40;;;;;;;3.58;3.20;;;;;23.20;101387.00;;;;5054194;28;20199;-81
2023/05/11 12:04:30;;;;;;;4.47;3.72;;;;;23.00;101381.00;;;;5053686;28;20220;-80
2023/05/11 12:06:58;;;;;;;3.75;3.08;;;;;23.00;101380.00;;;;5054285;28;20250;-80
2023/05/11 12:09:26;;;;;;;3.75;2.83;;;;;22.90;101385.00;;;;5049813;28;20250;-81
2023/05/11 12:11:55;;;;;;;3.75;2.90;;;;;22.80;101399.00;;;;5052464;28;20194;-80
2023/05/11 12:14:24;;;;;;;6.15;2.85;;;;;22.70;101390.00;;;;5062231;28;20214;-80